sensor_id;sensor_type;location;lat;lon;timestamp;temperature;humidity
34406;DHT22;20658;45.630;8.886;2023-11-22T00:00:38;5.40;99.90
34406;DHT22;20658;45.630;8.886;2023-11-22T00:03:12;5.80;99.90
34406;DHT22;20658;45.630;8.886;2023-11-22T00:05:45;6.10;99.90
34406;DHT22;20658;45.630;8.886;2023-11-22T00:08:19;5.60;99.90
34406;DHT22;20658;45.630;8.886;2023-11-22T00:10:54;5.50;99.90
34406;DHT22;20658;45.630;8.886;2023-11-22T00:13:27;5.30;99.90
34406;DHT22;20658;45.630;8.886;2023-11-22T00:16:01;5.30;99.90
34406;DHT22;20658;45.630;8.886;2023-11-22T00:18:34;5.30;99.90
34406;DHT22;20658;45.630;8.886;2023-11-22T00:21:09;5.30;99.90
34406;DHT22;20658;45.630;8.886;2023-11-22T00:23:43;5.50;99.90
34406;DHT22;20658;45.630;8.886;2023-11-22T00:26:20;5.90;99.90
34406;DHT22;20658;45.630;8.886;2023-11-22T00:29:00;5.30;99.90
34406;DHT22;20658;45.630;8.886;2023-11-22T00:31:36;5.30;99.90
34406;DHT22;20658;45.630;8.886;2023-11-22T00:34:15;5.30;99.90
34406;DHT22;20658;45.630;8.886;2023-11-22T00:36:49;5.30;99.90
34406;DHT22;20658;45.630;8.886;2023-11-22T00:39:26;5.20;99.90
34406;DHT22;20658;45.630;8.886;2023-11-22T00:42:16;5.20;99.90
34406;DHT22;20658;45.630;8.886;2023-11-22T00:45:05;5.20;99.90
34406;DHT22;20658;45.630;8.886;2023-11-22T00:47:37;5.20;99.90
34406;DHT22;20658;45.630;8.886;2023-11-22T00:50:07;5.20;99.90
34406;DHT22;20658;45.630;8.886;2023-11-22T00:52:40;5.20;99.90
34406;DHT22;20658;45.630;8.886;2023-11-22T00:55:16;5.50;99.90
34406;DHT22;20658;45.630;8.886;2023-11-22T00:57:51;5.10;99.90
34406;DHT22;20658;45.630;8.886;2023-11-22T01:00:19;5.30;99.90
34406;DHT22;20658;45.630;8.886;2023-11-22T01:02:53;5.70;99.90
34406;DHT22;20658;45.630;8.886;2023-11-22T01:05:27;5.50;99.90
34406;DHT22;20658;45.630;8.886;2023-11-22T01:08:01;5.10;99.90
34406;DHT22;20658;45.630;8.886;2023-11-22T01:10:34;5.10;99.90
34406;DHT22;20658;45.630;8.886;2023-11-22T01:13:08;5.10;99.90
34406;DHT22;20658;45.630;8.886;2023-11-22T01:15:42;5.10;99.90
34406;DHT22;20658;45.630;8.886;2023-11-22T01:18:16;5.10;99.90
34406;DHT22;20658;45.630;8.886;2023-11-22T01:20:50;5.00;99.90
34406;DHT22;20658;45.630;8.886;2023-11-22T01:23:24;5.10;99.90
34406;DHT22;20658;45.630;8.886;2023-11-22T01:25:57;5.00;99.90
34406;DHT22;20658;45.630;8.886;2023-11-22T01:28:32;5.00;99.90
34406;DHT22;20658;45.630;8.886;2023-11-22T01:31:06;5.00;99.90
34406;DHT22;20658;45.630;8.886;2023-11-22T01:33:40;5.00;99.90
34406;DHT22;20658;45.630;8.886;2023-11-22T01:36:13;4.90;99.90
34406;DHT22;20658;45.630;8.886;2023-11-22T01:38:48;4.90;99.90
34406;DHT22;20658;45.630;8.886;2023-11-22T01:41:22;4.90;99.90
34406;DHT22;20658;45.630;8.886;2023-11-22T01:43:57;5.40;99.90
34406;DHT22;20658;45.630;8.886;2023-11-22T01:46:31;4.80;99.90
34406;DHT22;20658;45.630;8.886;2023-11-22T01:49:05;4.80;99.90
34406;DHT22;20658;45.630;8.886;2023-11-22T01:51:39;4.80;99.90
34406;DHT22;20658;45.630;8.886;2023-11-22T01:54:14;4.80;99.90
34406;DHT22;20658;45.630;8.886;2023-11-22T01:56:48;4.80;99.90
34406;DHT22;20658;45.630;8.886;2023-11-22T01:59:25;4.70;99.90
34406;DHT22;20658;45.630;8.886;2023-11-22T02:01:59;4.90;99.90
34406;DHT22;20658;45.630;8.886;2023-11-22T02:04:32;4.70;99.90
34406;DHT22;20658;45.630;8.886;2023-11-22T02:07:05;4.70;99.90
34406;DHT22;20658;45.630;8.886;2023-11-22T02:09:39;4.70;99.90
34406;DHT22;20658;45.630;8.886;2023-11-22T02:12:12;4.80;99.90
34406;DHT22;20658;45.630;8.886;2023-11-22T02:14:48;4.60;99.90
34406;DHT22;20658;45.630;8.886;2023-11-22T02:17:21;4.50;99.90
34406;DHT22;20658;45.630;8.886;2023-11-22T02:20:11;4.60;99.90
34406;DHT22;20658;45.630;8.886;2023-11-22T02:22:45;4.50;99.90
34406;DHT22;20658;45.630;8.886;2023-11-22T02:25:20;4.50;99.90
34406;DHT22;20658;45.630;8.886;2023-11-22T02:27:53;4.50;99.90
34406;DHT22;20658;45.630;8.886;2023-11-22T02:30:26;4.50;99.90
34406;DHT22;20658;45.630;8.886;2023-11-22T02:32:59;4.40;99.90
34406;DHT22;20658;45.630;8.886;2023-11-22T02:35:33;4.40;99.90
34406;DHT22;20658;45.630;8.886;2023-11-22T02:38:07;4.40;99.90
34406;DHT22;20658;45.630;8.886;2023-11-22T02:40:36;4.40;99.90
34406;DHT22;20658;45.630;8.886;2023-11-22T02:43:10;4.50;99.90
34406;DHT22;20658;45.630;8.886;2023-11-22T02:45:43;4.30;99.90
34406;DHT22;20658;45.630;8.886;2023-11-22T02:48:17;4.30;99.90
34406;DHT22;20658;45.630;8.886;2023-11-22T02:50:50;4.30;99.90
34406;DHT22;20658;45.630;8.886;2023-11-22T02:53:26;4.30;99.90
34406;DHT22;20658;45.630;8.886;2023-11-22T02:56:03;4.60;99.90
34406;DHT22;20658;45.630;8.886;2023-11-22T02:58:37;4.30;99.90
34406;DHT22;20658;45.630;8.886;2023-11-22T03:01:11;4.30;99.90
34406;DHT22;20658;45.630;8.886;2023-11-22T03:03:45;4.30;99.90
34406;DHT22;20658;45.630;8.886;2023-11-22T03:06:18;4.30;99.90
34406;DHT22;20658;45.630;8.886;2023-11-22T03:08:51;4.30;99.90
34406;DHT22;20658;45.630;8.886;2023-11-22T03:11:26;4.30;99.90
34406;DHT22;20658;45.630;8.886;2023-11-22T03:14:01;4.30;99.90
34406;DHT22;20658;45.630;8.886;2023-11-22T03:16:38;4.50;99.90
34406;DHT22;20658;45.630;8.886;2023-11-22T03:19:12;4.30;99.90
34406;DHT22;20658;45.630;8.886;2023-11-22T03:21:45;4.30;99.90
34406;DHT22;20658;45.630;8.886;2023-11-22T03:24:18;4.30;99.90
34406;DHT22;20658;45.630;8.886;2023-11-22T03:26:53;4.30;99.90
34406;DHT22;20658;45.630;8.886;2023-11-22T03:29:28;4.50;99.90
34406;DHT22;20658;45.630;8.886;2023-11-22T03:32:02;4.20;99.90
34406;DHT22;20658;45.630;8.886;2023-11-22T03:34:36;4.20;99.90
34406;DHT22;20658;45.630;8.886;2023-11-22T03:37:09;4.40;99.90
34406;DHT22;20658;45.630;8.886;2023-11-22T03:39:44;4.20;99.90
34406;DHT22;20658;45.630;8.886;2023-11-22T03:42:21;4.30;99.90
34406;DHT22;20658;45.630;8.886;2023-11-22T03:44:54;4.30;99.90
34406;DHT22;20658;45.630;8.886;2023-11-22T03:47:30;4.30;99.90
34406;DHT22;20658;45.630;8.886;2023-11-22T03:49:59;4.20;99.90
34406;DHT22;20658;45.630;8.886;2023-11-22T03:52:33;4.20;99.90
34406;DHT22;20658;45.630;8.886;2023-11-22T03:55:07;4.60;99.90
34406;DHT22;20658;45.630;8.886;2023-11-22T03:57:42;4.30;99.90
34406;DHT22;20658;45.630;8.886;2023-11-22T04:00:18;4.90;99.90
34406;DHT22;20658;45.630;8.886;2023-11-22T04:02:52;4.40;99.90
34406;DHT22;20658;45.630;8.886;2023-11-22T04:05:26;4.40;99.90
34406;DHT22;20658;45.630;8.886;2023-11-22T04:07:59;4.40;99.90
34406;DHT22;20658;45.630;8.886;2023-11-22T04:10:32;4.50;99.90
34406;DHT22;20658;45.630;8.886;2023-11-22T04:13:07;4.20;99.90
34406;DHT22;20658;45.630;8.886;2023-11-22T04:15:40;4.10;99.90
34406;DHT22;20658;45.630;8.886;2023-11-22T04:18:14;4.20;99.90
34406;DHT22;20658;45.630;8.886;2023-11-22T04:20:47;4.10;99.90
34406;DHT22;20658;45.630;8.886;2023-11-22T04:23:20;4.20;99.90
34406;DHT22;20658;45.630;8.886;2023-11-22T04:25:54;4.10;99.90
34406;DHT22;20658;45.630;8.886;2023-11-22T04:28:29;4.10;99.90
34406;DHT22;20658;45.630;8.886;2023-11-22T04:31:02;4.10;99.90
34406;DHT22;20658;45.630;8.886;2023-11-22T04:33:36;4.20;99.90
34406;DHT22;20658;45.630;8.886;2023-11-22T04:36:09;4.40;99.90
34406;DHT22;20658;45.630;8.886;2023-11-22T04:38:43;4.40;99.90
34406;DHT22;20658;45.630;8.886;2023-11-22T04:41:17;4.10;99.90
34406;DHT22;20658;45.630;8.886;2023-11-22T04:43:52;4.10;99.90
34406;DHT22;20658;45.630;8.886;2023-11-22T04:46:26;4.30;99.90
34406;DHT22;20658;45.630;8.886;2023-11-22T04:48:59;4.20;99.90
34406;DHT22;20658;45.630;8.886;2023-11-22T04:51:33;4.50;99.90
34406;DHT22;20658;45.630;8.886;2023-11-22T04:54:06;4.10;99.90
34406;DHT22;20658;45.630;8.886;2023-11-22T04:56:39;4.40;99.90
34406;DHT22;20658;45.630;8.886;2023-11-22T04:59:14;4.10;99.90
34406;DHT22;20658;45.630;8.886;2023-11-22T05:01:47;4.00;99.90
34406;DHT22;20658;45.630;8.886;2023-11-22T05:04:21;4.40;99.90
34406;DHT22;20658;45.630;8.886;2023-11-22T05:06:54;4.40;99.90
34406;DHT22;20658;45.630;8.886;2023-11-22T05:09:27;4.00;99.90
34406;DHT22;20658;45.630;8.886;2023-11-22T05:12:01;4.30;99.90
34406;DHT22;20658;45.630;8.886;2023-11-22T05:14:36;4.20;99.90
34406;DHT22;20658;45.630;8.886;2023-11-22T05:17:09;4.00;99.90
34406;DHT22;20658;45.630;8.886;2023-11-22T05:19:44;4.00;99.90
34406;DHT22;20658;45.630;8.886;2023-11-22T05:22:17;4.00;99.90
34406;DHT22;20658;45.630;8.886;2023-11-22T05:24:51;4.00;99.90
34406;DHT22;20658;45.630;8.886;2023-11-22T05:27:19;3.90;99.90
34406;DHT22;20658;45.630;8.886;2023-11-22T05:29:54;3.90;99.90
34406;DHT22;20658;45.630;8.886;2023-11-22T05:32:27;4.00;99.90
34406;DHT22;20658;45.630;8.886;2023-11-22T05:35:03;3.90;99.90
34406;DHT22;20658;45.630;8.886;2023-11-22T05:37:33;3.90;99.90
34406;DHT22;20658;45.630;8.886;2023-11-22T05:40:07;3.90;99.90
34406;DHT22;20658;45.630;8.886;2023-11-22T05:42:42;3.80;99.90
34406;DHT22;20658;45.630;8.886;2023-11-22T05:45:17;3.80;99.90
34406;DHT22;20658;45.630;8.886;2023-11-22T05:47:45;4.10;99.90
34406;DHT22;20658;45.630;8.886;2023-11-22T05:50:19;4.30;99.90
34406;DHT22;20658;45.630;8.886;2023-11-22T05:52:52;4.20;99.90
34406;DHT22;20658;45.630;8.886;2023-11-22T05:55:26;4.20;99.90
34406;DHT22;20658;45.630;8.886;2023-11-22T05:57:59;4.50;99.90
34406;DHT22;20658;45.630;8.886;2023-11-22T06:00:34;3.90;99.90
34406;DHT22;20658;45.630;8.886;2023-11-22T06:03:04;3.90;99.90
34406;DHT22;20658;45.630;8.886;2023-11-22T06:05:38;4.10;99.90
34406;DHT22;20658;45.630;8.886;2023-11-22T06:08:11;4.30;99.90
34406;DHT22;20658;45.630;8.886;2023-11-22T06:10:45;4.30;99.90
34406;DHT22;20658;45.630;8.886;2023-11-22T06:13:18;4.20;99.90
34406;DHT22;20658;45.630;8.886;2023-11-22T06:15:53;4.00;99.90
34406;DHT22;20658;45.630;8.886;2023-11-22T06:18:26;4.30;99.90
34406;DHT22;20658;45.630;8.886;2023-11-22T06:21:01;4.30;99.90
34406;DHT22;20658;45.630;8.886;2023-11-22T06:23:35;4.10;99.90
34406;DHT22;20658;45.630;8.886;2023-11-22T06:26:08;4.10;99.90
34406;DHT22;20658;45.630;8.886;2023-11-22T06:28:41;4.40;99.90
34406;DHT22;20658;45.630;8.886;2023-11-22T06:31:18;4.20;99.90
34406;DHT22;20658;45.630;8.886;2023-11-22T06:33:52;4.20;99.90
34406;DHT22;20658;45.630;8.886;2023-11-22T06:36:25;4.70;99.90
34406;DHT22;20658;45.630;8.886;2023-11-22T06:38:59;4.30;99.90
34406;DHT22;20658;45.630;8.886;2023-11-22T06:41:33;4.20;99.90
34406;DHT22;20658;45.630;8.886;2023-11-22T06:44:06;4.50;99.90
34406;DHT22;20658;45.630;8.886;2023-11-22T06:46:41;4.30;99.90
34406;DHT22;20658;45.630;8.886;2023-11-22T06:49:14;4.30;99.90
34406;DHT22;20658;45.630;8.886;2023-11-22T06:51:48;4.40;99.90
34406;DHT22;20658;45.630;8.886;2023-11-22T06:54:21;4.30;99.90
34406;DHT22;20658;45.630;8.886;2023-11-22T06:56:49;4.30;99.90
34406;DHT22;20658;45.630;8.886;2023-11-22T06:59:23;4.60;99.90
34406;DHT22;20658;45.630;8.886;2023-11-22T07:01:57;4.30;99.90
34406;DHT22;20658;45.630;8.886;2023-11-22T07:04:31;4.40;99.90
34406;DHT22;20658;45.630;8.886;2023-11-22T07:07:04;4.40;99.90
34406;DHT22;20658;45.630;8.886;2023-11-22T07:09:40;4.40;99.90
34406;DHT22;20658;45.630;8.886;2023-11-22T07:12:15;4.60;99.90
34406;DHT22;20658;45.630;8.886;2023-11-22T07:14:48;4.50;99.90
34406;DHT22;20658;45.630;8.886;2023-11-22T07:17:23;4.50;99.90
34406;DHT22;20658;45.630;8.886;2023-11-22T07:19:51;4.60;99.90
34406;DHT22;20658;45.630;8.886;2023-11-22T07:22:20;4.70;99.90
34406;DHT22;20658;45.630;8.886;2023-11-22T07:24:50;4.70;99.90
34406;DHT22;20658;45.630;8.886;2023-11-22T07:27:20;4.80;99.90
34406;DHT22;20658;45.630;8.886;2023-11-22T07:29:49;4.90;99.90
34406;DHT22;20658;45.630;8.886;2023-11-22T07:32:19;5.00;99.90
34406;DHT22;20658;45.630;8.886;2023-11-22T07:34:49;5.10;99.90
34406;DHT22;20658;45.630;8.886;2023-11-22T07:37:27;5.50;99.90
34406;DHT22;20658;45.630;8.886;2023-11-22T07:40:01;5.30;99.90
34406;DHT22;20658;45.630;8.886;2023-11-22T07:42:35;5.50;99.90
34406;DHT22;20658;45.630;8.886;2023-11-22T07:45:09;5.50;99.90
34406;DHT22;20658;45.630;8.886;2023-11-22T07:47:38;5.60;99.90
34406;DHT22;20658;45.630;8.886;2023-11-22T07:50:10;5.70;99.90
34406;DHT22;20658;45.630;8.886;2023-11-22T07:52:44;5.80;99.90
34406;DHT22;20658;45.630;8.886;2023-11-22T07:55:17;6.00;99.90
34406;DHT22;20658;45.630;8.886;2023-11-22T07:57:48;6.30;99.90
34406;DHT22;20658;45.630;8.886;2023-11-22T08:00:22;6.30;99.90
34406;DHT22;20658;45.630;8.886;2023-11-22T08:02:56;6.90;99.90
34406;DHT22;20658;45.630;8.886;2023-11-22T08:05:30;6.60;99.90
34406;DHT22;20658;45.630;8.886;2023-11-22T08:08:06;6.70;99.90
34406;DHT22;20658;45.630;8.886;2023-11-22T08:10:40;6.80;99.90
34406;DHT22;20658;45.630;8.886;2023-11-22T08:13:14;7.00;99.90
34406;DHT22;20658;45.630;8.886;2023-11-22T08:15:48;7.10;99.90
34406;DHT22;20658;45.630;8.886;2023-11-22T08:18:21;7.30;99.90
34406;DHT22;20658;45.630;8.886;2023-11-22T08:20:56;7.40;99.90
34406;DHT22;20658;45.630;8.886;2023-11-22T08:23:30;7.50;99.90
34406;DHT22;20658;45.630;8.886;2023-11-22T08:25:59;7.50;99.90
34406;DHT22;20658;45.630;8.886;2023-11-22T08:28:33;7.60;99.90
34406;DHT22;20658;45.630;8.886;2023-11-22T08:31:01;7.80;99.90
34406;DHT22;20658;45.630;8.886;2023-11-22T08:33:36;7.90;99.90
34406;DHT22;20658;45.630;8.886;2023-11-22T08:36:11;8.00;99.90
34406;DHT22;20658;45.630;8.886;2023-11-22T08:38:44;8.20;99.90
34406;DHT22;20658;45.630;8.886;2023-11-22T08:41:18;8.30;99.90
34406;DHT22;20658;45.630;8.886;2023-11-22T08:43:51;8.50;99.90
34406;DHT22;20658;45.630;8.886;2023-11-22T08:46:25;8.60;99.90
34406;DHT22;20658;45.630;8.886;2023-11-22T08:48:58;8.80;99.90
34406;DHT22;20658;45.630;8.886;2023-11-22T08:51:36;8.90;99.90
34406;DHT22;20658;45.630;8.886;2023-11-22T08:54:09;9.00;99.90
34406;DHT22;20658;45.630;8.886;2023-11-22T08:56:42;9.10;99.90
34406;DHT22;20658;45.630;8.886;2023-11-22T08:59:18;9.30;99.90
34406;DHT22;20658;45.630;8.886;2023-11-22T09:01:51;9.40;99.90
34406;DHT22;20658;45.630;8.886;2023-11-22T09:04:25;9.60;99.90
34406;DHT22;20658;45.630;8.886;2023-11-22T09:07:01;9.70;99.90
34406;DHT22;20658;45.630;8.886;2023-11-22T09:09:34;9.80;99.90
34406;DHT22;20658;45.630;8.886;2023-11-22T09:12:08;10.00;99.90
34406;DHT22;20658;45.630;8.886;2023-11-22T09:14:44;10.10;99.90
34406;DHT22;20658;45.630;8.886;2023-11-22T09:17:17;10.20;99.90
34406;DHT22;20658;45.630;8.886;2023-11-22T09:19:52;10.20;99.90
34406;DHT22;20658;45.630;8.886;2023-11-22T09:22:29;10.40;99.90
34406;DHT22;20658;45.630;8.886;2023-11-22T09:25:02;10.60;99.90
34406;DHT22;20658;45.630;8.886;2023-11-22T09:27:35;10.70;99.90
34406;DHT22;20658;45.630;8.886;2023-11-22T09:30:10;10.80;99.90
34406;DHT22;20658;45.630;8.886;2023-11-22T09:32:51;10.90;99.90
34406;DHT22;20658;45.630;8.886;2023-11-22T09:35:25;11.00;99.90
34406;DHT22;20658;45.630;8.886;2023-11-22T09:38:04;11.20;99.90
34406;DHT22;20658;45.630;8.886;2023-11-22T09:40:41;11.30;99.90
34406;DHT22;20658;45.630;8.886;2023-11-22T09:43:16;11.40;99.90
34406;DHT22;20658;45.630;8.886;2023-11-22T09:45:50;11.60;99.90
34406;DHT22;20658;45.630;8.886;2023-11-22T09:48:26;11.70;99.90
34406;DHT22;20658;45.630;8.886;2023-11-22T09:51:00;11.80;99.90
34406;DHT22;20658;45.630;8.886;2023-11-22T09:53:42;11.90;99.90
34406;DHT22;20658;45.630;8.886;2023-11-22T09:56:20;12.10;99.90
34406;DHT22;20658;45.630;8.886;2023-11-22T09:58:55;12.10;99.90
34406;DHT22;20658;45.630;8.886;2023-11-22T10:01:29;12.20;99.60
34406;DHT22;20658;45.630;8.886;2023-11-22T10:04:05;12.40;98.90
34406;DHT22;20658;45.630;8.886;2023-11-22T10:06:38;12.50;97.70
34406;DHT22;20658;45.630;8.886;2023-11-22T10:09:14;12.60;98.00
34406;DHT22;20658;45.630;8.886;2023-11-22T10:11:47;12.80;98.00
34406;DHT22;20658;45.630;8.886;2023-11-22T10:14:25;12.80;96.20
34406;DHT22;20658;45.630;8.886;2023-11-22T10:16:59;12.90;95.00
34406;DHT22;20658;45.630;8.886;2023-11-22T10:19:33;12.90;94.70
34406;DHT22;20658;45.630;8.886;2023-11-22T10:22:05;13.00;93.70
34406;DHT22;20658;45.630;8.886;2023-11-22T10:24:43;13.10;92.50
34406;DHT22;20658;45.630;8.886;2023-11-22T10:27:18;13.10;91.60
34406;DHT22;20658;45.630;8.886;2023-11-22T10:29:52;13.50;91.00
34406;DHT22;20658;45.630;8.886;2023-11-22T10:32:26;13.20;90.10
34406;DHT22;20658;45.630;8.886;2023-11-22T10:34:59;13.30;90.30
34406;DHT22;20658;45.630;8.886;2023-11-22T10:37:32;13.40;89.50
34406;DHT22;20658;45.630;8.886;2023-11-22T10:40:09;13.50;90.10
34406;DHT22;20658;45.630;8.886;2023-11-22T10:42:44;13.60;89.60
34406;DHT22;20658;45.630;8.886;2023-11-22T10:45:15;13.70;89.10
34406;DHT22;20658;45.630;8.886;2023-11-22T10:47:49;13.70;88.80
34406;DHT22;20658;45.630;8.886;2023-11-22T10:50:26;13.70;87.90
34406;DHT22;20658;45.630;8.886;2023-11-22T10:52:57;13.70;87.90
34406;DHT22;20658;45.630;8.886;2023-11-22T10:55:35;13.80;86.50
34406;DHT22;20658;45.630;8.886;2023-11-22T10:58:11;13.90;86.40
34406;DHT22;20658;45.630;8.886;2023-11-22T11:00:47;14.20;86.60
34406;DHT22;20658;45.630;8.886;2023-11-22T11:03:24;14.00;86.40
34406;DHT22;20658;45.630;8.886;2023-11-22T11:06:02;14.10;86.40
34406;DHT22;20658;45.630;8.886;2023-11-22T11:08:37;14.10;86.10
34406;DHT22;20658;45.630;8.886;2023-11-22T11:11:13;14.00;85.70
34406;DHT22;20658;45.630;8.886;2023-11-22T11:13:47;14.00;86.60
34406;DHT22;20658;45.630;8.886;2023-11-22T11:16:22;14.00;85.30
34406;DHT22;20658;45.630;8.886;2023-11-22T11:18:56;14.00;85.20
34406;DHT22;20658;45.630;8.886;2023-11-22T11:21:25;14.00;84.70
34406;DHT22;20658;45.630;8.886;2023-11-22T11:23:55;14.10;84.00
34406;DHT22;20658;45.630;8.886;2023-11-22T11:26:32;14.00;83.90
34406;DHT22;20658;45.630;8.886;2023-11-22T11:29:30;14.40;84.00
34406;DHT22;20658;45.630;8.886;2023-11-22T11:31:59;14.20;84.10
34406;DHT22;20658;45.630;8.886;2023-11-22T11:34:47;14.10;83.60
34406;DHT22;20658;45.630;8.886;2023-11-22T11:37:21;14.10;84.00
34406;DHT22;20658;45.630;8.886;2023-11-22T11:39:54;14.30;83.80
34406;DHT22;20658;45.630;8.886;2023-11-22T11:42:30;14.30;83.20
34406;DHT22;20658;45.630;8.886;2023-11-22T11:45:05;14.30;81.50
34406;DHT22;20658;45.630;8.886;2023-11-22T11:47:34;14.20;82.30
34406;DHT22;20658;45.630;8.886;2023-11-22T11:50:07;14.20;82.70
34406;DHT22;20658;45.630;8.886;2023-11-22T11:52:41;14.30;83.50
34406;DHT22;20658;45.630;8.886;2023-11-22T11:55:14;14.30;83.80
34406;DHT22;20658;45.630;8.886;2023-11-22T11:57:45;14.20;83.90
34406;DHT22;20658;45.630;8.886;2023-11-22T12:00:14;14.20;83.40
34406;DHT22;20658;45.630;8.886;2023-11-22T12:02:48;14.30;84.60
34406;DHT22;20658;45.630;8.886;2023-11-22T12:05:21;14.40;84.10
34406;DHT22;20658;45.630;8.886;2023-11-22T12:07:51;14.30;83.40
34406;DHT22;20658;45.630;8.886;2023-11-22T12:10:20;14.30;83.00
34406;DHT22;20658;45.630;8.886;2023-11-22T12:12:50;14.40;83.00
34406;DHT22;20658;45.630;8.886;2023-11-22T12:15:23;14.40;82.30
34406;DHT22;20658;45.630;8.886;2023-11-22T12:17:58;14.50;82.30
34406;DHT22;20658;45.630;8.886;2023-11-22T12:20:27;14.50;81.40
34406;DHT22;20658;45.630;8.886;2023-11-22T12:23:03;14.50;81.10
34406;DHT22;20658;45.630;8.886;2023-11-22T12:25:36;14.40;80.90
34406;DHT22;20658;45.630;8.886;2023-11-22T12:28:06;14.30;80.50
34406;DHT22;20658;45.630;8.886;2023-11-22T12:30:40;14.30;81.10
34406;DHT22;20658;45.630;8.886;2023-11-22T12:33:15;14.50;81.50
34406;DHT22;20658;45.630;8.886;2023-11-22T12:35:49;14.40;81.20
34406;DHT22;20658;45.630;8.886;2023-11-22T12:38:23;14.40;82.30
34406;DHT22;20658;45.630;8.886;2023-11-22T12:40:57;14.80;83.20
34406;DHT22;20658;45.630;8.886;2023-11-22T12:43:32;14.50;83.00
34406;DHT22;20658;45.630;8.886;2023-11-22T12:46:06;14.50;83.40
34406;DHT22;20658;45.630;8.886;2023-11-22T12:48:43;14.40;83.00
34406;DHT22;20658;45.630;8.886;2023-11-22T12:51:17;14.40;82.90
34406;DHT22;20658;45.630;8.886;2023-11-22T12:53:58;14.40;83.60
34406;DHT22;20658;45.630;8.886;2023-11-22T12:56:32;14.40;83.50
34406;DHT22;20658;45.630;8.886;2023-11-22T12:59:02;14.30;84.00
34406;DHT22;20658;45.630;8.886;2023-11-22T13:01:36;14.40;83.70
34406;DHT22;20658;45.630;8.886;2023-11-22T13:04:09;14.60;83.70
34406;DHT22;20658;45.630;8.886;2023-11-22T13:06:43;14.20;83.50
34406;DHT22;20658;45.630;8.886;2023-11-22T13:09:16;14.30;83.60
34406;DHT22;20658;45.630;8.886;2023-11-22T13:11:50;14.20;83.70
34406;DHT22;20658;45.630;8.886;2023-11-22T13:14:25;14.20;83.20
34406;DHT22;20658;45.630;8.886;2023-11-22T13:17:04;14.10;83.40
34406;DHT22;20658;45.630;8.886;2023-11-22T13:19:38;14.10;83.10
34406;DHT22;20658;45.630;8.886;2023-11-22T13:22:13;14.20;83.10
34406;DHT22;20658;45.630;8.886;2023-11-22T13:24:41;14.20;82.60
34406;DHT22;20658;45.630;8.886;2023-11-22T13:27:14;14.20;82.70
34406;DHT22;20658;45.630;8.886;2023-11-22T13:29:49;14.10;82.80
34406;DHT22;20658;45.630;8.886;2023-11-22T13:32:19;14.10;82.90
34406;DHT22;20658;45.630;8.886;2023-11-22T13:34:52;14.10;83.20
34406;DHT22;20658;45.630;8.886;2023-11-22T13:37:22;14.20;83.40
34406;DHT22;20658;45.630;8.886;2023-11-22T13:39:56;14.20;83.30
34406;DHT22;20658;45.630;8.886;2023-11-22T13:42:29;14.10;82.30
34406;DHT22;20658;45.630;8.886;2023-11-22T13:45:05;14.00;82.70
34406;DHT22;20658;45.630;8.886;2023-11-22T13:47:39;14.00;82.00
34406;DHT22;20658;45.630;8.886;2023-11-22T13:50:13;13.90;82.40
34406;DHT22;20658;45.630;8.886;2023-11-22T13:52:46;13.90;82.50
34406;DHT22;20658;45.630;8.886;2023-11-22T13:55:15;13.90;82.90
34406;DHT22;20658;45.630;8.886;2023-11-22T13:57:51;13.90;82.50
34406;DHT22;20658;45.630;8.886;2023-11-22T14:00:28;13.90;82.60
34406;DHT22;20658;45.630;8.886;2023-11-22T14:03:06;14.30;82.60
34406;DHT22;20658;45.630;8.886;2023-11-22T14:05:39;13.90;82.50
34406;DHT22;20658;45.630;8.886;2023-11-22T14:08:13;13.90;82.70
34406;DHT22;20658;45.630;8.886;2023-11-22T14:10:46;13.80;82.50
34406;DHT22;20658;45.630;8.886;2023-11-22T14:13:20;14.00;83.00
34406;DHT22;20658;45.630;8.886;2023-11-22T14:15:55;13.80;83.10
34406;DHT22;20658;45.630;8.886;2023-11-22T14:18:28;13.80;83.10
34406;DHT22;20658;45.630;8.886;2023-11-22T14:21:02;13.80;83.20
34406;DHT22;20658;45.630;8.886;2023-11-22T14:23:36;13.70;83.40
34406;DHT22;20658;45.630;8.886;2023-11-22T14:26:09;13.70;83.90
34406;DHT22;20658;45.630;8.886;2023-11-22T14:28:38;13.80;84.10
34406;DHT22;20658;45.630;8.886;2023-11-22T14:31:10;13.60;83.60
34406;DHT22;20658;45.630;8.886;2023-11-22T14:33:44;13.60;84.00
34406;DHT22;20658;45.630;8.886;2023-11-22T14:36:17;13.50;84.40
34406;DHT22;20658;45.630;8.886;2023-11-22T14:38:51;13.40;84.40
34406;DHT22;20658;45.630;8.886;2023-11-22T14:41:23;13.80;84.90
34406;DHT22;20658;45.630;8.886;2023-11-22T14:43:59;13.40;85.00
34406;DHT22;20658;45.630;8.886;2023-11-22T14:46:34;13.30;85.60
34406;DHT22;20658;45.630;8.886;2023-11-22T14:49:03;13.30;85.90
34406;DHT22;20658;45.630;8.886;2023-11-22T14:51:37;13.20;86.10
34406;DHT22;20658;45.630;8.886;2023-11-22T14:54:11;13.10;86.40
34406;DHT22;20658;45.630;8.886;2023-11-22T14:56:44;13.10;86.90
34406;DHT22;20658;45.630;8.886;2023-11-22T14:59:14;13.00;87.30
34406;DHT22;20658;45.630;8.886;2023-11-22T15:01:50;13.10;87.70
34406;DHT22;20658;45.630;8.886;2023-11-22T15:04:27;13.10;87.90
34406;DHT22;20658;45.630;8.886;2023-11-22T15:07:01;12.80;88.00
34406;DHT22;20658;45.630;8.886;2023-11-22T15:09:34;12.80;88.60
34406;DHT22;20658;45.630;8.886;2023-11-22T15:12:08;12.70;89.10
34406;DHT22;20658;45.630;8.886;2023-11-22T15:14:41;12.80;89.20
34406;DHT22;20658;45.630;8.886;2023-11-22T15:17:16;12.50;89.30
34406;DHT22;20658;45.630;8.886;2023-11-22T15:19:49;12.40;89.70
34406;DHT22;20658;45.630;8.886;2023-11-22T15:22:41;12.40;90.00
34406;DHT22;20658;45.630;8.886;2023-11-22T15:25:10;12.30;90.70
34406;DHT22;20658;45.630;8.886;2023-11-22T15:27:38;12.20;91.00
34406;DHT22;20658;45.630;8.886;2023-11-22T15:30:11;12.10;91.20
34406;DHT22;20658;45.630;8.886;2023-11-22T15:32:46;12.00;91.50
34406;DHT22;20658;45.630;8.886;2023-11-22T15:35:20;12.20;92.20
34406;DHT22;20658;45.630;8.886;2023-11-22T15:37:49;11.80;92.70
34406;DHT22;20658;45.630;8.886;2023-11-22T15:40:22;11.70;93.10
34406;DHT22;20658;45.630;8.886;2023-11-22T15:42:56;11.60;93.70
34406;DHT22;20658;45.630;8.886;2023-11-22T15:45:29;11.60;94.10
34406;DHT22;20658;45.630;8.886;2023-11-22T15:48:05;11.50;94.70
34406;DHT22;20658;45.630;8.886;2023-11-22T15:50:34;11.40;95.40
34406;DHT22;20658;45.630;8.886;2023-11-22T15:53:07;11.30;96.00
34406;DHT22;20658;45.630;8.886;2023-11-22T15:55:39;11.20;96.70
34406;DHT22;20658;45.630;8.886;2023-11-22T15:58:08;11.20;97.30
34406;DHT22;20658;45.630;8.886;2023-11-22T16:00:42;11.10;98.00
34406;DHT22;20658;45.630;8.886;2023-11-22T16:03:17;11.00;98.40
34406;DHT22;20658;45.630;8.886;2023-11-22T16:05:50;10.90;98.90
34406;DHT22;20658;45.630;8.886;2023-11-22T16:08:25;11.10;99.50
34406;DHT22;20658;45.630;8.886;2023-11-22T16:10:54;10.80;99.80
34406;DHT22;20658;45.630;8.886;2023-11-22T16:13:27;10.80;99.90
34406;DHT22;20658;45.630;8.886;2023-11-22T16:16:00;10.70;99.90
34406;DHT22;20658;45.630;8.886;2023-11-22T16:18:31;10.60;99.90
34406;DHT22;20658;45.630;8.886;2023-11-22T16:21:05;10.50;99.90